William P Hobby Airport
KHOU : rendu visible

Aérodrome :











RETROUVEZ-NOUS SUR...

 
LOGIN :

S'inscrire | Disclaimer

   EN    FR    IT 

 









Légende :    VFR   VFR Marginal   IFR   IFR Intensif   IFR Très Intensif
Visi : 
Plafond : 
>= 8 km
>= 3000ft
5 à 8 km
1000 à 3000 ft
1500m à 5 km
500 à 1000 ft
800 à 1500m
200 à 500 ft
< 800m
< 200 ft
Symboles :   Orages  Brouillard  Fortes neiges  Fortes précipitations  Vent > 20 kt







- Altitude de l'aérodrome : 46 ft
- Code IATA : HOU


KHOU - William P Hobby

DERNIER METAR :
  • 220953Z 11005KT 10SM FEW020 FEW250 25/23 A3000 RMK AO2 SLP164 T02500228

METARs EXPIRÉS :
  • 220853Z 09003KT 10SM FEW018 FEW250 26/23 A3001 RMK AO2 SLP165 T02610233 56003
  • 220753Z 11003KT 10SM FEW020 FEW250 26/23 A3001 RMK AO2 SLP166 T02610233

TAF KHOU
Valide du 22 à 09h jusqu'au 23 à 06h UTC


220922Z 2209/2306 10005KT P6SM FEW015 FEW250
TEMPO 2214/2216 BKN025
FM221600 14010KT P6SM VCSH SCT025 BKN035
FM222100 15010KT P6SM SCT040 BKN250
FM230200 14005KT P6SM FEW025 SCT250
Pas de NOTAMs connus pour ce terrain.



MET'MAP, la Météo Aéronautique d'un coup d'oeil ! - Copyright ORBIFLY Décembre 2007 - Disclaimer

ORBIFLY MET'MAP TEAM :

Programmation & Développement : Alexandra Zaïnal
Conception & Développement : Baudouin d'Aumeries
Co-Programmation & Développement : Marc-Olivier Méhu
Soutien technique & logistique : Manuel Goepfert

Contact : metmap@orbifly.com




SOURCES & CREDITS :

   NOAA       Earth
Advisory